Time;durP1;ratioP1;P1;durP2;ratioP2;P2;SDS_P1;SDS_P2;PMS_P1;PMS_P2;Temp;Humidity;BMP_temperature;BMP_pressure;BME280_temperature;BME280_humidity;BME280_pressure;Samples;Min_cycle;Max_cycle;Signal;HPM_P1;HPM_P2
2023/03/09 00:02:43;;;;;;;20.50;13.50;;;;;;;8.41;67.11;96847.09;223632;181;148977;-74
2023/03/09 00:07:47;;;;;;;21.10;13.40;;;;;;;8.43;67.03;96844.74;223716;181;138838;-75
2023/03/09 00:12:50;;;;;;;20.20;13.20;;;;;;;8.40;67.30;96837.25;223725;180;137104;-74
2023/03/09 00:17:53;;;;;;;17.10;12.40;;;;;;;8.37;67.53;96834.70;223732;181;147437;-75
2023/03/09 00:22:57;;;;;;;22.50;12.60;;;;;;;8.38;67.75;96834.95;223665;181;138052;-75
2023/03/09 00:28:00;;;;;;;21.30;13.40;;;;;;;8.42;67.82;96831.05;223711;181;137860;-73
2023/03/09 00:33:04;;;;;;;19.10;11.90;;;;;;;8.50;67.79;96826.80;223643;181;147169;-72
2023/03/09 00:38:07;;;;;;;19.50;13.10;;;;;;;8.60;67.79;96823.49;223601;181;138973;-72
2023/03/09 00:43:11;;;;;;;21.00;13.50;;;;;;;8.59;67.65;96823.91;223775;181;136731;-73
2023/03/09 00:48:14;;;;;;;16.40;11.10;;;;;;;8.58;68.03;96817.59;223653;181;147426;-74
2023/03/09 00:53:18;;;;;;;15.40;10.00;;;;;;;8.73;68.44;96809.02;223693;181;139611;-73
2023/03/09 00:58:21;;;;;;;12.10;8.60;;;;;;;8.90;68.73;96799.16;222558;181;136740;-75
2023/03/09 01:03:26;;;;;;;16.30;9.10;;;;;;;9.10;68.59;96793.30;223678;181;147083;-75
2023/03/09 01:08:29;;;;;;;12.80;8.40;;;;;;;9.23;68.71;96792.25;223677;181;138393;-75
2023/03/09 01:13:33;;;;;;;11.70;7.20;;;;;;;9.40;68.80;96787.81;223727;182;139086;-76
2023/03/09 01:18:38;;;;;;;11.20;7.20;;;;;;;9.59;68.69;96785.02;223652;181;147434;-76
2023/03/09 01:23:42;;;;;;;12.20;7.50;;;;;;;9.75;68.55;96780.48;223664;181;138074;-76
2023/03/09 01:28:47;;;;;;;11.40;7.20;;;;;;;9.85;68.33;96773.61;223886;180;136809;-75
2023/03/09 01:33:51;;;;;;;12.00;7.50;;;;;;;9.90;68.30;96777.59;223781;181;147619;-74
2023/03/09 01:38:54;;;;;;;9.80;6.70;;;;;;;9.95;68.24;96769.55;223803;181;138651;-75
2023/03/09 01:43:58;;;;;;;11.00;6.70;;;;;;;9.93;68.35;96763.18;223692;181;136479;-75
2023/03/09 01:49:09;;;;;;;9.60;6.30;;;;;;;9.89;68.47;96753.60;223696;181;149826;-75
2023/03/09 01:54:41;;;;;;;9.30;5.90;;;;;;;9.90;68.56;96751.25;223649;181;138825;-75
2023/03/09 01:59:47;;;;;;;8.30;5.80;;;;;;;9.94;68.68;96744.42;223722;181;137043;-75
2023/03/09 02:04:59;;;;;;;10.20;6.00;;;;;;;10.00;68.57;96744.04;223738;181;147141;-75
2023/03/09 02:10:06;;;;;;;11.20;6.60;;;;;;;10.02;68.49;96742.65;223582;181;138423;-75
2023/03/09 02:15:11;;;;;;;8.80;6.10;;;;;;;9.97;68.49;96744.70;223676;181;137613;-75
2023/03/09 02:20:20;;;;;;;9.20;6.10;;;;;;;9.89;68.65;96745.66;223681;181;147077;-75
2023/03/09 02:25:32;;;;;;;9.80;6.40;;;;;;;9.80;68.64;96744.19;223653;182;138258;-75
2023/03/09 02:30:41;;;;;;;10.60;7.10;;;;;;;9.69;68.76;96740.79;223711;181;137222;-75
2023/03/09 02:35:44;;;;;;;14.10;11.00;;;;;;;9.57;68.93;96739.15;223633;181;147235;-75
2023/03/09 02:40:49;;;;;;;17.00;12.90;;;;;;;9.45;69.03;96738.28;223584;181;138596;-75
2023/03/09 02:45:54;;;;;;;15.30;11.90;;;;;;;9.39;69.20;96739.98;223565;181;136970;-75
2023/03/09 02:50:58;;;;;;;16.60;12.30;;;;;;;9.38;69.32;96743.82;223714;181;148954;-73
2023/03/09 02:56:03;;;;;;;19.10;12.50;;;;;;;9.37;69.55;96745.46;223649;181;137963;-76
2023/03/09 03:01:07;;;;;;;16.80;12.40;;;;;;;9.36;69.68;96743.92;223773;181;137533;-76
2023/03/09 03:06:11;;;;;;;17.20;12.50;;;;;;;9.34;69.69;96745.03;223672;181;146699;-73
2023/03/09 03:11:15;;;;;;;16.10;12.80;;;;;;;9.31;69.77;96744.08;223578;181;138613;-74
2023/03/09 03:16:19;;;;;;;15.90;12.40;;;;;;;9.28;69.89;96748.06;223732;182;137194;-74
2023/03/09 03:21:25;;;;;;;18.70;12.20;;;;;;;9.21;70.08;96750.96;223794;182;146860;-73
2023/03/09 03:26:29;;;;;;;16.80;12.20;;;;;;;9.24;70.19;96749.84;223677;179;138167;-76
2023/03/09 03:31:36;;;;;;;19.00;12.90;;;;;;;9.24;70.36;96751.61;223694;182;137828;-76
2023/03/09 03:36:40;;;;;;;17.70;12.20;;;;;;;9.27;70.30;96743.02;223688;181;147039;-74
2023/03/09 03:41:43;;;;;;;16.20;12.50;;;;;;;9.29;70.23;96741.49;223744;182;138628;-72
2023/03/09 03:46:49;;;;;;;17.90;12.90;;;;;;;9.25;70.49;96733.35;223787;181;137156;-73
2023/03/09 03:51:52;;;;;;;43.60;29.20;;;;;;;9.33;70.39;96729.41;223668;182;148296;-73
2023/03/09 03:56:56;;;;;;;103.10;72.40;;;;;;;9.27;70.39;96731.86;223653;181;139027;-73
2023/03/09 04:02:00;;;;;;;20.20;14.40;;;;;;;9.22;70.70;96727.41;223698;181;137314;-73
2023/03/09 04:07:06;;;;;;;18.70;13.00;;;;;;;9.16;70.56;96723.02;223656;181;147689;-73
2023/03/09 04:12:09;;;;;;;14.00;11.90;;;;;;;9.11;70.62;96713.25;223651;182;139349;-74
2023/03/09 04:17:16;;;;;;;42.00;32.00;;;;;;;9.15;70.84;96711.81;223694;181;138070;-74
2023/03/09 04:22:20;;;;;;;16.80;12.40;;;;;;;9.20;70.70;96710.21;223710;181;146810;-73
2023/03/09 04:27:24;;;;;;;17.80;12.80;;;;;;;9.19;70.60;96703.62;223755;181;139424;-74
2023/03/09 04:32:32;;;;;;;17.10;12.50;;;;;;;9.16;70.62;96700.35;223691;181;136519;-69
2023/03/09 04:37:41;;;;;;;18.30;12.40;;;;;;;9.13;70.56;96702.10;223733;181;147511;-73
2023/03/09 04:42:44;;;;;;;17.80;12.20;;;;;;;9.09;70.69;96691.46;223671;182;138565;-74
2023/03/09 04:47:49;;;;;;;17.10;13.80;;;;;;;9.08;70.90;96686.66;223741;181;137687;-74
2023/03/09 04:52:55;;;;;;;16.90;12.10;;;;;;;9.05;70.83;96680.03;223789;181;148913;-74
2023/03/09 04:58:01;;;;;;;17.50;12.20;;;;;;;9.01;71.09;96677.55;223634;181;138498;-71
2023/03/09 05:03:05;;;;;;;16.40;12.10;;;;;;;9.05;71.14;96675.26;223699;182;140648;-71
2023/03/09 05:08:10;;;;;;;18.40;11.90;;;;;;;9.09;70.99;96671.63;223737;181;147611;-70
2023/03/09 05:13:14;;;;;;;18.20;12.40;;;;;;;9.09;70.94;96669.54;223751;181;139741;-70
2023/03/09 05:18:17;;;;;;;16.50;11.60;;;;;;;9.09;71.08;96668.50;223633;182;136876;-70
2023/03/09 05:23:22;;;;;;;18.80;12.90;;;;;;;9.06;71.16;96668.77;223620;182;148238;-70
2023/03/09 05:28:26;;;;;;;16.60;11.70;;;;;;;9.02;71.24;96664.00;223624;178;139236;-71
2023/03/09 05:33:29;;;;;;;17.00;12.10;;;;;;;8.98;71.43;96665.77;223686;182;137515;-72
2023/03/09 05:38:34;;;;;;;15.40;10.50;;;;;;;9.01;71.70;96668.56;223695;181;147383;-72
2023/03/09 05:43:41;;;;;;;15.60;12.10;;;;;;;9.07;71.68;96665.27;223687;181;138745;-72
2023/03/09 05:48:47;;;;;;;15.40;12.30;;;;;;;9.15;71.64;96665.67;223789;181;136807;-72
2023/03/09 05:53:52;;;;;;;18.80;12.50;;;;;;;9.19;71.48;96668.98;223763;183;147931;-72
2023/03/09 05:58:57;;;;;;;21.50;14.70;;;;;;;9.20;71.49;96664.73;223536;181;138357;-72
2023/03/09 06:04:01;;;;;;;18.50;13.50;;;;;;;9.21;71.41;96665.04;223708;182;137494;-70
2023/03/09 06:09:05;;;;;;;18.20;13.80;;;;;;;9.17;71.59;96659.63;223658;182;148203;-70
2023/03/09 06:14:09;;;;;;;17.50;13.10;;;;;;;9.17;71.61;96659.61;223685;182;139874;-70
2023/03/09 06:19:15;;;;;;;16.10;12.10;;;;;;;9.18;71.81;96658.30;223771;182;138002;-70
2023/03/09 06:24:19;;;;;;;17.30;12.10;;;;;;;9.27;71.75;96657.61;223618;182;147268;-70
2023/03/09 06:29:24;;;;;;;17.50;12.80;;;;;;;9.34;71.90;96658.86;223748;182;138236;-70
2023/03/09 06:34:31;;;;;;;16.60;12.80;;;;;;;9.43;71.85;96658.92;223762;182;137210;-70
2023/03/09 06:39:37;;;;;;;19.20;13.10;;;;;;;9.48;72.02;96654.64;223588;182;147391;-70
2023/03/09 06:44:42;;;;;;;20.00;13.20;;;;;;;9.57;72.25;96665.01;223681;182;139512;-70
2023/03/09 06:49:46;;;;;;;;;;;;;;;9.64;72.51;96660.23;223736;182;137467;-70
2023/03/09 06:54:52;;;;;;;16.50;10.80;;;;;;;9.73;72.44;96663.96;223826;182;148298;-70
2023/03/09 07:00:14;;;;;;;16.00;10.90;;;;;;;9.87;72.58;96659.46;223732;181;139464;-71
2023/03/09 07:05:18;;;;;;;17.10;10.00;;;;;;;10.01;72.48;96659.98;223566;182;137325;-72
2023/03/09 07:10:25;;;;;;;14.50;10.70;;;;;;;10.11;72.25;96652.48;223628;182;147139;-71
2023/03/09 07:15:29;;;;;;;14.40;10.00;;;;;;;10.19;72.26;96645.48;223679;181;138809;-71
2023/03/09 07:20:32;;;;;;;16.40;9.30;;;;;;;10.23;72.13;96648.23;223696;181;138942;-70
2023/03/09 07:25:37;;;;;;;14.60;8.50;;;;;;;10.22;72.05;96643.04;223777;182;148521;-71
2023/03/09 07:30:40;;;;;;;11.20;7.60;;;;;;;10.20;72.03;96641.80;223663;181;138914;-71
2023/03/09 07:35:43;;;;;;;12.30;8.80;;;;;;;10.22;72.08;96643.24;223752;181;138280;-71
2023/03/09 07:40:47;;;;;;;13.00;8.60;;;;;;;10.34;72.16;96647.52;223721;182;147296;-71
2023/03/09 07:45:50;;;;;;;11.10;8.40;;;;;;;10.49;72.23;96636.86;223525;181;138930;-71
2023/03/09 07:50:58;;;;;;;18.00;9.50;;;;;;;10.62;72.11;96632.88;222246;181;137395;-70
2023/03/09 07:56:03;;;;;;;20.00;9.30;;;;;;;10.71;72.05;96628.98;223781;181;148219;-71
2023/03/09 08:01:16;;;;;;;19.00;9.50;;;;;;;10.75;72.01;96612.63;223654;181;152162;-71
2023/03/09 08:06:20;;;;;;;15.40;9.70;;;;;;;10.78;71.96;96604.17;223706;182;137117;-70
2023/03/09 08:17:44;;;;;;;18.40;9.60;;;;;;;10.83;71.86;96600.94;223692;181;138729;-71
2023/03/09 08:22:47;;;;;;;21.80;9.80;;;;;;;10.92;71.92;96605.34;223780;182;137748;-70
2023/03/09 08:27:52;;;;;;;15.60;10.10;;;;;;;11.01;72.11;96613.27;223674;181;147300;-71
2023/03/09 08:32:57;;;;;;;12.20;7.30;;;;;;;11.09;71.82;96620.75;223657;182;138465;-71
2023/03/09 08:38:01;;;;;;;9.90;4.70;;;;;;;11.23;71.19;96632.00;223685;182;137300;-71
2023/03/09 08:43:05;;;;;;;6.30;3.50;;;;;;;11.36;70.64;96642.15;223700;182;147901;-71
2023/03/09 08:48:09;;;;;;;5.10;3.20;;;;;;;11.44;70.33;96637.73;223474;182;138955;-70
2023/03/09 08:53:12;;;;;;;2.90;2.20;;;;;;;11.44;70.27;96640.15;223701;181;137130;-70
2023/03/09 08:58:16;;;;;;;5.50;2.60;;;;;;;11.49;70.38;96642.21;223720;182;147916;-72
2023/03/09 09:03:19;;;;;;;4.40;2.40;;;;;;;11.62;70.45;96641.20;223711;182;137333;-72
2023/03/09 09:08:24;;;;;;;5.60;2.10;;;;;;;11.68;70.23;96640.22;223679;181;136863;-72
2023/03/09 09:13:27;;;;;;;5.40;2.50;;;;;;;11.70;70.22;96642.19;223696;181;147894;-72
2023/03/09 09:18:32;;;;;;;5.50;2.60;;;;;;;11.63;70.29;96648.54;223703;182;138686;-72
2023/03/09 09:23:44;;;;;;;4.60;2.30;;;;;;;11.58;70.63;96646.55;223617;182;136813;-72
2023/03/09 09:28:48;;;;;;;4.40;2.50;;;;;;;11.61;70.64;96644.17;223673;181;147128;-72
2023/03/09 09:33:51;;;;;;;4.30;2.20;;;;;;;11.64;70.73;96644.40;223728;181;138903;-72
2023/03/09 09:38:55;;;;;;;3.20;1.90;;;;;;;11.68;70.38;96645.25;223707;181;137974;-71
2023/03/09 09:44:05;;;;;;;2.90;1.60;;;;;;;11.70;70.12;96645.69;223724;181;148620;-71
2023/03/09 09:49:17;;;;;;;2.50;1.70;;;;;;;11.68;70.13;96644.65;223769;181;138514;-72
2023/03/09 09:54:39;;;;;;;2.80;1.80;;;;;;;11.72;70.27;96639.84;223751;181;136932;-73
2023/03/09 09:59:56;;;;;;;4.30;1.80;;;;;;;11.73;70.01;96646.43;223714;181;147930;-73
2023/03/09 10:05:42;;;;;;;2.50;1.60;;;;;;;11.72;70.23;96651.69;223431;182;139402;-71
2023/03/09 10:10:47;;;;;;;117.70;75.20;;;;;;;11.73;70.53;96653.79;223652;182;140970;-70
2023/03/09 10:15:52;;;;;;;4.30;2.50;;;;;;;11.77;70.77;96659.90;223648;181;148550;-70
2023/03/09 10:21:18;;;;;;;2.90;2.00;;;;;;;11.83;70.58;96665.83;223705;181;138490;-69
2023/03/09 10:26:35;;;;;;;7.10;2.30;;;;;;;11.81;70.53;96682.02;223610;181;138834;-70
2023/03/09 10:31:42;;;;;;;6.30;1.90;;;;;;;11.80;70.85;96669.34;223755;181;147152;-70
2023/03/09 10:37:15;;;;;;;4.00;2.20;;;;;;;11.79;71.09;96676.13;223723;181;139130;-70
2023/03/09 10:42:22;;;;;;;3.30;2.30;;;;;;;11.75;71.27;96686.38;223582;182;137296;-70
2023/03/09 10:47:26;;;;;;;4.80;2.00;;;;;;;11.79;71.36;96693.81;223589;181;147311;-70
2023/03/09 10:52:29;;;;;;;2.90;2.20;;;;;;;11.91;71.39;96702.35;223634;182;138584;-69
2023/03/09 10:57:33;;;;;;;4.40;2.40;;;;;;;12.00;71.29;96702.86;223654;181;136956;-70
2023/03/09 11:02:37;;;;;;;6.10;2.80;;;;;;;11.98;71.15;96709.41;223697;181;147918;-69
2023/03/09 11:14:30;;;;;;;4.30;2.50;;;;;;;11.86;71.08;96723.98;223996;215;131339;-69
2023/03/09 11:19:34;;;;;;;3.90;2.30;;;;;;;11.81;70.70;96727.67;223650;181;148667;-68
2023/03/09 11:24:43;;;;;;;3.70;2.20;;;;;;;11.65;70.41;96749.08;223563;183;140589;-69
2023/03/09 11:29:56;;;;;;;2.00;1.50;;;;;;;11.49;70.81;96755.53;223611;183;137763;-69
2023/03/09 11:35:02;;;;;;;2.90;2.00;;;;;;;11.42;70.75;96757.50;223618;179;146977;-69
2023/03/09 11:40:10;;;;;;;;;;;;;;;11.40;71.16;96769.92;223636;183;138268;-69
2023/03/09 11:45:19;;;;;;;5.00;3.60;;;;;;;11.41;71.28;96779.42;223744;182;130774;-69
2023/03/09 11:50:38;;;;;;;4.60;3.10;;;;;;;11.30;71.16;96795.95;223657;182;148295;-70
2023/03/09 11:55:45;;;;;;;4.20;2.50;;;;;;;11.16;71.23;96806.77;223606;182;138138;-70
2023/03/09 12:00:55;;;;;;;4.20;2.90;;;;;;;11.10;71.22;96813.36;223660;183;136896;-69
2023/03/09 12:06:11;;;;;;;6.20;3.90;;;;;;;11.09;71.39;96829.33;223715;182;147152;-70
2023/03/09 12:11:24;;;;;;;6.90;4.10;;;;;;;11.08;72.20;96846.59;223353;183;138263;-71
2023/03/09 12:16:35;;;;;;;98.10;56.20;;;;;;;11.06;72.75;96865.83;223352;182;136979;-66
2023/03/09 12:21:43;;;;;;;6.40;2.70;;;;;;;11.10;72.92;96872.84;223554;182;147204;-71
2023/03/09 12:27:23;;;;;;;3.80;2.60;;;;;;;11.16;71.97;96877.60;223532;183;139233;-70
2023/03/09 12:32:28;;;;;;;4.10;2.40;;;;;;;11.24;71.57;96883.96;223643;183;136525;-70
2023/03/09 12:37:56;;;;;;;6.20;2.90;;;;;;;11.25;71.13;96898.95;223619;183;147304;-70
2023/03/09 12:43:18;;;;;;;4.70;2.80;;;;;;;11.22;70.89;96908.77;223603;183;138168;-71
2023/03/09 12:48:25;;;;;;;4.30;2.40;;;;;;;11.22;70.82;96921.61;223567;182;140657;-70
2023/03/09 12:53:33;;;;;;;4.50;1.70;;;;;;;11.13;70.50;96939.60;223659;183;148445;-70
2023/03/09 12:58:41;;;;;;;5.70;1.80;;;;;;;11.04;69.84;96944.83;223602;183;138745;-70
2023/03/09 13:03:45;;;;;;;2.10;1.50;;;;;;;10.99;69.39;96964.81;223552;182;136945;-70
2023/03/09 13:08:54;;;;;;;4.10;1.90;;;;;;;10.87;69.64;96966.27;223641;182;147986;-71
2023/03/09 13:14:03;;;;;;;3.60;2.00;;;;;;;10.86;69.64;96987.14;223632;182;139752;-71
2023/03/09 13:19:18;;;;;;;3.30;1.80;;;;;;;10.89;69.65;96985.45;223624;182;137934;-71
2023/03/09 13:24:27;;;;;;;3.40;2.20;;;;;;;10.91;69.75;96999.70;223637;182;149316;-70
2023/03/09 13:29:31;;;;;;;3.50;1.90;;;;;;;10.89;69.67;97008.16;223583;182;138478;-70
2023/03/09 13:34:55;;;;;;;3.20;2.20;;;;;;;10.90;69.63;97024.38;223581;183;138846;-70
2023/03/09 13:40:05;;;;;;;6.10;2.30;;;;;;;10.91;69.60;97039.23;223671;182;147456;-70
2023/03/09 13:45:20;;;;;;;4.70;2.30;;;;;;;10.92;69.65;97052.55;223534;183;139290;-71
2023/03/09 13:50:32;;;;;;;6.30;2.30;;;;;;;10.89;69.70;97058.56;223565;183;137230;-69
2023/03/09 13:55:36;;;;;;;4.00;2.50;;;;;;;10.93;69.96;97076.84;223592;183;147662;-71
2023/03/09 14:01:00;;;;;;;4.50;2.70;;;;;;;10.94;69.88;97078.87;223658;183;139341;-71
2023/03/09 14:06:04;;;;;;;4.50;2.70;;;;;;;11.04;69.84;97085.56;223489;182;137869;-71
2023/03/09 14:11:29;;;;;;;6.00;3.10;;;;;;;11.17;68.80;97092.48;223644;182;147384;-71
2023/03/09 14:16:34;;;;;;;5.90;3.10;;;;;;;11.25;68.33;97099.82;223670;183;138912;-71
2023/03/09 14:21:38;;;;;;;5.60;3.00;;;;;;;11.31;67.93;97102.63;223677;183;136722;-70
2023/03/09 14:26:43;;;;;;;4.80;3.10;;;;;;;11.31;67.63;97114.52;223512;183;147758;-70
2023/03/09 14:31:47;;;;;;;5.70;3.80;;;;;;;11.24;67.67;97137.70;223582;183;139542;-71
2023/03/09 14:37:03;;;;;;;7.90;5.00;;;;;;;11.15;67.26;97144.51;223629;183;137808;-72
2023/03/09 14:42:06;;;;;;;8.50;5.80;;;;;;;11.11;66.66;97156.31;223656;182;148939;-70
2023/03/09 14:53:30;;;;;;;5.90;3.90;;;;;;;11.20;63.90;97166.91;223636;183;136804;-70
2023/03/09 14:58:34;;;;;;;5.40;3.90;;;;;;;11.03;63.22;97162.38;223542;183;148223;-69
2023/03/09 15:03:38;;;;;;;4.90;3.70;;;;;;;10.96;63.22;97167.94;223613;182;138746;-69
2023/03/09 15:08:41;;;;;;;5.60;3.90;;;;;;;10.94;63.36;97176.94;223556;183;137203;-70
2023/03/09 15:13:45;;;;;;;5.80;4.10;;;;;;;10.94;63.61;97178.73;223620;182;148114;-70
2023/03/09 15:18:48;;;;;;;5.60;4.00;;;;;;;10.92;63.48;97185.52;223487;182;139013;-69
2023/03/09 15:23:51;;;;;;;5.20;4.10;;;;;;;10.94;63.13;97199.30;223520;182;137897;-69
2023/03/09 15:28:54;;;;;;;6.60;4.60;;;;;;;10.99;62.60;97219.98;223588;183;147315;-70
2023/03/09 15:33:58;;;;;;;6.70;4.90;;;;;;;10.95;62.22;97228.98;223492;183;139063;-70
2023/03/09 15:39:03;;;;;;;5.40;4.60;;;;;;;10.93;62.41;97243.41;223596;182;151206;-70
2023/03/09 15:44:06;;;;;;;6.50;5.10;;;;;;;10.89;62.08;97245.34;223505;182;147988;-70
2023/03/09 15:49:09;;;;;;;7.40;5.50;;;;;;;10.88;61.45;97252.38;223599;183;140204;-69
2023/03/09 15:54:13;;;;;;;5.60;4.60;;;;;;;10.82;61.24;97258.77;223611;183;137171;-69
2023/03/09 15:59:16;;;;;;;8.00;4.80;;;;;;;10.73;61.11;97257.45;223635;183;147398;-70
2023/03/09 16:04:20;;;;;;;6.70;4.70;;;;;;;10.67;61.00;97264.39;223539;183;138123;-70
2023/03/09 16:09:26;;;;;;;217.50;135.80;;;;;;;10.61;61.05;97267.27;222725;183;136839;-73
2023/03/09 16:14:29;;;;;;;9.70;6.30;;;;;;;10.58;60.94;97284.15;222832;183;148564;-73
2023/03/09 16:19:32;;;;;;;8.80;5.80;;;;;;;10.54;60.79;97304.45;223583;183;139078;-71
2023/03/09 16:24:36;;;;;;;8.80;5.90;;;;;;;10.55;60.57;97325.41;223574;183;138127;-69
2023/03/09 16:29:39;;;;;;;8.20;5.90;;;;;;;10.52;60.66;97337.70;223618;183;146745;-70
2023/03/09 16:34:43;;;;;;;9.30;6.10;;;;;;;10.51;60.57;97338.41;223601;182;139580;-70
2023/03/09 16:39:46;;;;;;;9.00;5.70;;;;;;;10.39;60.59;97349.52;223667;183;137524;-70
2023/03/09 16:44:50;;;;;;;7.90;5.50;;;;;;;10.38;60.37;97356.77;223340;183;147757;-70
2023/03/09 16:49:59;;;;;;;8.70;5.40;;;;;;;10.31;60.17;97372.77;223610;182;139321;-71
2023/03/09 16:55:06;;;;;;;6.50;4.90;;;;;;;10.26;60.14;97384.24;223700;182;136725;-72
2023/03/09 17:00:19;;;;;;;10.00;4.70;;;;;;;10.13;59.85;97393.94;223640;183;148349;-73
2023/03/09 17:05:23;;;;;;;5.50;4.00;;;;;;;10.13;59.62;97407.06;223498;182;138462;-75
2023/03/09 17:10:27;;;;;;;6.00;3.90;;;;;;;10.13;59.39;97412.71;223635;183;137257;-75
2023/03/09 17:15:31;;;;;;;5.30;3.90;;;;;;;10.12;59.14;97416.93;223618;183;147432;-74
2023/03/09 17:20:35;;;;;;;5.60;4.10;;;;;;;10.10;59.16;97419.59;223578;182;139927;-74
2023/03/09 17:25:41;;;;;;;5.90;4.30;;;;;;;10.09;59.16;97424.81;223712;179;138839;-72
2023/03/09 17:30:44;;;;;;;6.70;4.50;;;;;;;10.06;59.39;97433.44;223676;182;150526;-75
2023/03/09 17:35:49;;;;;;;6.60;4.50;;;;;;;10.07;59.35;97445.00;223674;182;140190;-75
2023/03/09 17:40:52;;;;;;;9.50;5.30;;;;;;;10.07;59.42;97457.92;223656;183;137045;-75
2023/03/09 17:45:58;;;;;;;7.20;5.60;;;;;;;10.13;59.43;97465.06;223619;183;147169;-76
2023/03/09 17:51:05;;;;;;;6.60;4.90;;;;;;;10.19;59.45;97479.06;223587;183;138889;-75
2023/03/09 17:56:09;;;;;;;7.90;5.10;;;;;;;10.20;59.54;97495.30;223554;183;136737;-75
2023/03/09 18:01:26;;;;;;;9.70;6.60;;;;;;;10.18;59.85;97510.73;223551;183;147140;-72
2023/03/09 18:06:31;;;;;;;7.80;5.70;;;;;;;10.13;59.94;97511.68;223641;182;138861;-71
2023/03/09 18:11:39;;;;;;;10.70;5.60;;;;;;;10.12;59.89;97519.66;223597;182;137695;-70
2023/03/09 18:16:44;;;;;;;9.40;5.90;;;;;;;10.10;59.80;97533.54;223694;182;147250;-70
2023/03/09 18:21:47;;;;;;;9.30;6.10;;;;;;;10.11;59.79;97532.17;223581;182;139031;-71
2023/03/09 18:26:51;;;;;;;12.00;7.10;;;;;;;10.14;59.77;97532.11;223687;182;136885;-71
2023/03/09 18:31:54;;;;;;;7.70;6.30;;;;;;;10.14;59.63;97536.47;223594;183;147976;-71
2023/03/09 18:36:57;;;;;;;11.20;7.60;;;;;;;10.12;59.66;97545.20;223629;183;138287;-71
2023/03/09 18:42:01;;;;;;;13.90;7.90;;;;;;;10.14;59.86;97542.60;223613;183;137591;-72
2023/03/09 18:47:04;;;;;;;11.70;8.60;;;;;;;10.14;59.80;97534.44;223617;183;148081;-71
2023/03/09 18:52:07;;;;;;;12.90;9.00;;;;;;;10.15;59.71;97538.41;223645;183;138717;-71
2023/03/09 18:57:11;;;;;;;13.00;9.30;;;;;;;10.16;59.79;97540.62;223551;183;137280;-71
2023/03/09 19:02:16;;;;;;;18.20;10.80;;;;;;;10.16;59.72;97516.67;223590;183;147622;-72
2023/03/09 19:07:19;;;;;;;15.70;10.50;;;;;;;10.11;59.86;97523.00;223710;182;139874;-71
2023/03/09 19:12:23;;;;;;;17.30;10.50;;;;;;;10.08;59.89;97524.08;223457;183;137071;-71
2023/03/09 19:17:26;;;;;;;14.70;10.00;;;;;;;10.11;59.76;97525.60;223415;187;148778;-71
2023/03/09 19:22:30;;;;;;;15.10;10.60;;;;;;;10.05;59.88;97527.88;223325;182;138528;-72
2023/03/09 19:27:34;;;;;;;16.20;10.90;;;;;;;10.02;60.04;97525.36;223304;182;138540;-71
2023/03/09 19:32:38;;;;;;;16.50;10.80;;;;;;;10.02;60.18;97523.39;223318;183;147685;-71
2023/03/09 19:37:41;;;;;;;18.90;12.00;;;;;;;9.99;60.33;97523.27;223453;209;139736;-75
2023/03/09 19:42:49;;;;;;;18.60;13.40;;;;;;;9.90;60.44;97528.66;223372;208;137525;-75
2023/03/09 19:47:52;;;;;;;17.80;13.20;;;;;;;9.86;60.55;97534.52;223341;182;147193;-74
2023/03/09 19:52:55;;;;;;;20.40;13.70;;;;;;;9.83;60.56;97529.77;223430;183;139671;-74
2023/03/09 19:57:59;;;;;;;28.90;21.90;;;;;;;9.77;60.58;97531.48;223327;182;136939;-74
2023/03/09 20:03:03;;;;;;;51.60;38.20;;;;;;;9.85;62.57;97537.23;222849;192;147242;-75
2023/03/09 20:08:06;;;;;;;22.30;15.90;;;;;;;9.92;60.81;97528.83;223309;182;138740;-74
2023/03/09 20:13:10;;;;;;;22.70;16.30;;;;;;;9.85;60.48;97519.31;223474;187;137400;-74
2023/03/09 20:18:14;;;;;;;18.90;15.00;;;;;;;9.75;60.58;97523.69;223376;183;147698;-71
2023/03/09 20:23:17;;;;;;;240.20;163.40;;;;;;;9.66;60.90;97522.98;223407;183;138348;-72
2023/03/09 20:28:20;;;;;;;33.60;20.50;;;;;;;9.67;61.56;97528.27;223467;182;137443;-71
2023/03/09 20:33:26;;;;;;;24.30;17.30;;;;;;;9.62;61.42;97524.44;223368;183;147930;-65
2023/03/09 20:38:32;;;;;;;25.00;17.10;;;;;;;9.50;61.81;97527.71;223374;183;138900;-64
2023/03/09 20:43:40;;;;;;;25.30;17.60;;;;;;;9.38;62.07;97527.44;223527;187;137240;-65
2023/03/09 20:48:45;;;;;;;27.70;19.10;;;;;;;9.30;62.46;97526.02;223522;183;157645;-65
2023/03/09 20:53:53;;;;;;;29.60;19.50;;;;;;;9.21;62.78;97521.05;223401;183;138236;-65
2023/03/09 20:58:58;;;;;;;25.90;17.70;;;;;;;9.17;63.17;97511.44;223435;184;137408;-65
2023/03/09 21:04:05;;;;;;;25.10;16.90;;;;;;;9.16;63.56;97506.98;223474;183;149131;-66
2023/03/09 21:09:09;;;;;;;26.70;18.10;;;;;;;9.22;63.33;97502.02;223459;182;138667;-64
2023/03/09 21:14:16;;;;;;;32.60;18.70;;;;;;;9.23;63.41;97498.05;223418;182;137199;-65
2023/03/09 21:19:21;;;;;;;24.80;19.20;;;;;;;9.19;63.50;97497.84;223423;217;147819;-65
2023/03/09 21:24:25;;;;;;;25.20;18.50;;;;;;;9.13;63.50;97503.66;223501;182;138278;-66
2023/03/09 21:29:33;;;;;;;26.40;19.30;;;;;;;9.11;63.83;97504.89;223406;183;137658;-65
2023/03/09 21:34:37;;;;;;;26.60;18.10;;;;;;;9.05;64.08;97503.05;223450;182;147110;-64
2023/03/09 21:39:40;;;;;;;24.50;18.20;;;;;;;9.03;64.26;97505.00;223415;183;138197;-65
2023/03/09 21:44:44;;;;;;;24.10;16.00;;;;;;;9.00;64.49;97494.61;223405;183;138233;-65
2023/03/09 21:49:48;;;;;;;24.90;16.60;;;;;;;8.93;64.30;97486.52;223378;183;147744;-63
2023/03/09 21:54:55;;;;;;;31.10;18.60;;;;;;;8.87;64.62;97487.73;223406;217;139505;-63
2023/03/09 21:59:59;;;;;;;34.70;20.60;;;;;;;8.81;64.65;97486.80;223919;182;136719;-66
2023/03/09 22:05:04;;;;;;;36.50;21.50;;;;;;;8.77;65.02;97483.55;223279;182;146842;-65
2023/03/09 22:10:13;;;;;;;35.70;20.50;;;;;;;8.73;65.09;97483.48;223485;183;139238;-67
2023/03/09 22:15:21;;;;;;;28.00;18.80;;;;;;;8.69;65.11;97488.92;223468;182;139825;-66
2023/03/09 22:20:28;;;;;;;26.20;17.70;;;;;;;8.80;64.89;97482.77;223429;183;148235;-67
2023/03/09 22:25:39;;;;;;;24.30;16.30;;;;;;;8.78;64.41;97490.52;223316;183;139257;-64
2023/03/09 22:30:47;;;;;;;23.40;16.50;;;;;;;8.72;64.49;97490.86;223318;183;137702;-65
2023/03/09 22:36:12;;;;;;;23.80;16.90;;;;;;;8.66;64.74;97477.50;223397;183;147896;-64
2023/03/09 22:41:51;;;;;;;28.60;18.00;;;;;;;8.58;65.11;97462.81;223380;183;140236;-66
2023/03/09 22:47:30;;;;;;;26.10;17.20;;;;;;;8.45;65.73;97462.57;223298;182;138135;-64
2023/03/09 22:53:03;;;;;;;26.30;17.70;;;;;;;8.33;66.14;97458.01;223342;184;147739;-66
2023/03/09 22:58:09;;;;;;;26.60;18.80;;;;;;;8.23;66.47;97456.10;223374;183;138428;-68
2023/03/09 23:03:14;;;;;;;27.00;19.20;;;;;;;8.15;66.72;97452.00;223347;183;138454;-67
2023/03/09 23:08:18;;;;;;;26.40;18.90;;;;;;;8.08;67.03;97455.67;223344;183;149187;-66
2023/03/09 23:13:23;;;;;;;26.20;18.90;;;;;;;8.04;67.25;97461.33;223136;184;138526;-67
2023/03/09 23:18:28;;;;;;;26.80;18.30;;;;;;;8.05;67.46;97462.98;223317;184;138683;-64
2023/03/09 23:23:35;;;;;;;29.90;20.00;;;;;;;8.15;67.38;97450.77;223312;184;148506;-66
2023/03/09 23:28:45;;;;;;;25.90;18.90;;;;;;;8.15;67.22;97433.94;223350;184;140175;-64
2023/03/09 23:33:53;;;;;;;32.30;20.50;;;;;;;8.13;67.11;97443.27;223396;183;137929;-66
2023/03/09 23:38:57;;;;;;;28.70;20.10;;;;;;;8.06;66.83;97440.70;223392;183;147780;-65
2023/03/09 23:44:02;;;;;;;28.60;20.50;;;;;;;7.90;67.20;97447.20;223239;183;140482;-65
2023/03/09 23:49:07;;;;;;;31.80;20.20;;;;;;;7.83;67.50;97447.71;223443;184;137717;-65
2023/03/09 23:54:11;;;;;;;32.60;21.60;;;;;;;7.80;67.71;97451.83;223355;183;146947;-65
